Acme, Michigan
Current Conditions -  °F | °C
As of 2:53 PM on Thursday 29 Jan 2015 (Local Time) from KTVC Reporting Station
Overcast Overcast  
Wind Chill: 22°   Ceiling: 2400
Heat Index: 33°   Visibility: 8mi
Dew Point: 24°   Wind: 17mph
Humidity: 70%   Direction: 340°NNW
Pressure: 29.82"   Gusts: 26mph
Location:  44.77°N, 85.5°W
Report Text: KTVC 291953Z 34015G23KT 8SM OVC024 01/M04 A2982 RMK AO2 PK WND 32028/1924 SNE05 SLP105 P0000 T00061044
Loading
Personal Weather Stations






























Interactive Weather Map New forecast layout! Learn more

10-Day Weather Forecast

Advertisements
Track Severe Weather on mobile